Los Angeles, CA

5:23 PM PST on January 31, 2015 (GMT -0800)
Los Angeles International | Change Station
CLOSE
Current Station
Airport
Location: Los Angeles,
Elevation: 105 ft
Nearby Weather Stations

Elev 105 ft 33.94 °N, 118.39 °W | Updated 30 minutes ago

Clear
Clear
61 °F
Feels Like 61 °F
N
8
Wind Variable Wind from West

Today
High -- | Low -- °F
--% Chance of Precip.
Yesterday
High -- | Low -- °F
Precip. -- in
6:50 AM 5:22 PM
Waxing Gibbous, 92% visible
Pressure 29.90 in
Visibility 10.0 miles
Clouds Few 1400 ft
Scattered Clouds 3500 ft
Scattered Clouds 9000 ft
Dew Point 55 °F
Humidity 81%
Rainfall 0.00 in
Snow Depth Not available.
UV 0 out of 12
Pollen 6.90 out of 12
Air Quality Not available.
Flu Activity Not available.
METAR KLAX 010053Z 26007KT 10SM FEW014 SCT035 SCT090 16/13 A2990 RMK AO2 SLP125 T01610128

More Conditions Fewer Conditions

Pressure 29.90 in
Visibility 10.0 miles
Clouds Few 1400 ft
Scattered Clouds 3500 ft
Scattered Clouds 9000 ft
Dew Point 55 °F
Humidity 81%
Rainfall 0.00 in
Snow Depth Not available.
UV 0 out of 12
Pollen 6.90 out of 12
Air Quality Not available.
Flu Activity Not available.
METAR KLAX 010053Z 26007KT 10SM FEW014 SCT035 SCT090 16/13 A2990 RMK AO2 SLP125 T01610128

More Conditions Fewer Conditions

10-Day Weather Forecast

Almanac

Astronomy

Jan. 31, 2015 Rise Set
Actual Time
Civil Twilight
Nautical Twilight
Astronomical Twilight
Moon
Length of Visible Light
Length of Day
Tomorrow will be .
, % of the Moon is Illuminated

Today's Extremes

State Highs State Lows

Community

WunderPhotos

Upload Photos

1,792,273 photos uploaded!

WunderBlogs® & News

Nearby

Air Quality

  Air Quality AQ Index Pollutant
Not available.

Snow Depth

Station Depth Elevation

Earthquake Activity

City Distance Mag. Time & Date
Minimum magnitude displayed is 2.5.

Coastal Water Temperatures

Place Temperature

Nearby Weather Stations